Time;durP1;ratioP1;P1;durP2;ratioP2;P2;SDS_P1;SDS_P2;PMS_P1;PMS_P2;Temp;Humidity;BMP_temperature;BMP_pressure;BME280_temperature;BME280_humidity;BME280_pressure;Samples;Min_cycle;Max_cycle;Signal;HPM_P1;HPM_P2
2022/05/04 00:02:18;;;;;;;32.00;8.60;;;;;;;-145.18;100.00;60484.78;5038822;28;20853;-68
2022/05/04 00:04:43;;;;;;;24.33;8.37;;;;;;;-145.18;100.00;60484.78;5038063;28;20029;-68
2022/05/04 00:07:08;;;;;;;21.07;8.57;;;;;;;-145.18;100.00;60484.78;5038271;28;20067;-68
2022/05/04 00:09:34;;;;;;;26.97;8.53;;;;;;;-145.18;100.00;60484.78;5041690;28;20497;-68
2022/05/04 00:11:59;;;;;;;21.00;7.97;;;;;;;-145.18;100.00;60484.78;5038953;28;20100;-68
2022/05/04 00:14:25;;;;;;;25.73;8.37;;;;;;;-145.18;100.00;60484.78;5035989;28;20111;-68
2022/05/04 00:16:52;;;;;;;23.47;8.63;;;;;;;-145.18;100.00;60484.78;5036957;28;20033;-68
2022/05/04 00:19:17;;;;;;;23.57;9.20;;;;;;;-145.18;100.00;60484.78;5034827;28;20041;-68
2022/05/04 00:21:43;;;;;;;24.90;8.97;;;;;;;-145.18;100.00;60484.78;5039629;28;20025;-68
2022/05/04 00:24:08;;;;;;;31.07;9.20;;;;;;;-145.18;100.00;60484.78;5032235;28;20794;-68
2022/05/04 00:26:34;;;;;;;26.97;8.97;;;;;;;-145.18;100.00;60484.78;5043564;28;20104;-68
2022/05/04 00:28:59;;;;;;;29.47;9.17;;;;;;;-145.18;100.00;60484.78;5034816;28;20040;-68
2022/05/04 00:31:24;;;;;;;22.20;9.57;;;;;;;-145.18;100.00;60484.78;5037937;28;20033;-68
2022/05/04 00:33:50;;;;;;;27.20;9.70;;;;;;;-145.18;100.00;60484.78;5040195;28;20540;-68
2022/05/04 00:36:15;;;;;;;25.47;9.50;;;;;;;-145.18;100.00;60484.78;5038294;28;20033;-68
2022/05/04 00:38:40;;;;;;;32.97;10.33;;;;;;;-145.18;100.00;60484.78;5031715;28;20192;-67
2022/05/04 00:41:06;;;;;;;29.10;9.90;;;;;;;-145.18;100.00;60484.78;5032362;28;20473;-67
2022/05/04 00:43:31;;;;;;;23.07;9.77;;;;;;;-145.18;100.00;60484.78;5044409;28;20393;-67
2022/05/04 00:45:57;;;;;;;21.17;9.43;;;;;;;-145.18;100.00;60484.78;5036161;28;20041;-67
2022/05/04 00:48:22;;;;;;;25.63;9.70;;;;;;;-145.18;100.00;60484.78;5038318;28;20032;-68
2022/05/04 00:50:49;;;;;;;22.10;8.93;;;;;;;-145.18;100.00;60484.78;5033732;28;20029;-68
2022/05/04 00:53:20;;;;;;;23.70;9.37;;;;;;;-145.18;100.00;60484.78;5042478;28;20469;-68
2022/05/04 00:55:46;;;;;;;23.07;8.57;;;;;;;-145.18;100.00;60484.78;5037662;28;20030;-68
2022/05/04 01:00:59;;;;;;;19.23;7.70;;;;;;;-145.18;100.00;60484.78;5041353;28;20067;-68
2022/05/04 01:03:25;;;;;;;17.43;7.90;;;;;;;-145.18;100.00;60484.78;5036813;28;20587;-68
2022/05/04 01:05:50;;;;;;;21.63;8.17;;;;;;;-145.18;100.00;60484.78;5037121;28;20108;-68
2022/05/04 01:08:15;;;;;;;26.30;8.20;;;;;;;-145.18;100.00;60484.78;5030791;28;20604;-68
2022/05/04 01:10:41;;;;;;;17.83;7.60;;;;;;;-145.18;100.00;60484.78;5037490;28;20091;-68
2022/05/04 01:13:06;;;;;;;18.20;7.83;;;;;;;-145.18;100.00;60484.78;5032792;28;20494;-68
2022/05/04 01:15:32;;;;;;;21.13;8.33;;;;;;;-145.18;100.00;60484.78;5041802;28;20028;-68
2022/05/04 01:17:57;;;;;;;17.57;8.53;;;;;;;-145.18;100.00;60484.78;5041599;28;20594;-68
2022/05/04 01:20:24;;;;;;;16.27;7.83;;;;;;;-145.18;100.00;60484.78;5037476;28;20033;-68
2022/05/04 01:22:50;;;;;;;19.00;7.63;;;;;;;-145.18;100.00;60484.78;5040079;28;20059;-68
2022/05/04 01:25:15;;;;;;;20.63;8.00;;;;;;;-145.18;100.00;60484.78;5033452;28;20053;-68
2022/05/04 01:27:41;;;;;;;23.00;7.97;;;;;;;-145.18;100.00;60484.78;5033058;28;20088;-68
2022/05/04 01:30:11;;;;;;;19.07;8.20;;;;;;;-145.18;100.00;60484.78;5033479;28;20381;-68
2022/05/04 01:32:37;;;;;;;17.53;7.80;;;;;;;-145.18;100.00;60484.78;5043980;28;20037;-68
2022/05/04 01:35:02;;;;;;;16.13;7.90;;;;;;;-145.18;100.00;60484.78;5043397;28;20489;-68
2022/05/04 01:37:28;;;;;;;22.93;8.70;;;;;;;-145.18;100.00;60484.78;5040909;28;20115;-68
2022/05/04 01:39:53;;;;;;;18.07;8.63;;;;;;;-145.18;100.00;60484.78;5032721;28;20049;-68
2022/05/04 01:42:23;;;;;;;22.60;8.57;;;;;;;-145.18;100.00;60484.78;5034878;28;20029;-68
2022/05/04 01:44:49;;;;;;;17.60;7.80;;;;;;;-145.18;100.00;60484.78;5045772;28;20033;-68
2022/05/04 01:47:15;;;;;;;19.33;8.57;;;;;;;-145.18;100.00;60484.78;5032018;28;20056;-68
2022/05/04 01:49:40;;;;;;;18.90;8.50;;;;;;;-145.18;100.00;60484.78;5036537;28;20454;-68
2022/05/04 01:52:06;;;;;;;18.60;8.57;;;;;;;-145.18;100.00;60484.78;5032053;28;20111;-68
2022/05/04 01:54:31;;;;;;;22.40;8.27;;;;;;;-145.18;100.00;60484.78;5039660;28;20035;-68
2022/05/04 01:56:57;;;;;;;26.53;9.17;;;;;;;-145.18;100.00;60484.78;5040111;28;20473;-68
2022/05/04 01:59:22;;;;;;;27.13;8.70;;;;;;;-145.18;100.00;60484.78;5037724;28;20481;-68
2022/05/04 02:01:48;;;;;;;21.53;8.60;;;;;;;-145.18;100.00;60484.78;5042577;28;20096;-68
2022/05/04 02:04:14;;;;;;;24.87;9.67;;;;;;;-145.18;100.00;60484.78;5035521;28;20381;-68
2022/05/04 02:06:40;;;;;;;21.07;9.70;;;;;;;-145.18;100.00;60484.78;5037460;28;20346;-68
2022/05/04 02:09:06;;;;;;;22.47;9.87;;;;;;;-145.18;100.00;60484.78;5046737;28;20040;-69
2022/05/04 02:11:32;;;;;;;21.53;9.30;;;;;;;-145.18;100.00;60484.78;5040988;28;20144;-69
2022/05/04 02:13:58;;;;;;;25.07;9.57;;;;;;;-145.18;100.00;60484.78;5048298;28;20028;-68
2022/05/04 02:16:24;;;;;;;23.00;9.17;;;;;;;-145.18;100.00;60484.78;5040736;28;20060;-68
2022/05/04 02:18:49;;;;;;;27.23;9.30;;;;;;;-145.18;100.00;60484.78;5034955;28;20401;-68
2022/05/04 02:21:15;;;;;;;23.20;9.80;;;;;;;-145.18;100.00;60484.78;5039087;28;20439;-68
2022/05/04 02:23:40;;;;;;;21.30;9.70;;;;;;;-145.18;100.00;60484.78;5036316;28;20514;-67
2022/05/04 02:26:05;;;;;;;28.23;9.77;;;;;;;-145.18;100.00;60484.78;5039991;28;20087;-68
2022/05/04 02:28:31;;;;;;;25.13;9.97;;;;;;;-145.18;100.00;60484.78;5038499;28;20458;-68
2022/05/04 02:30:56;;;;;;;22.80;10.30;;;;;;;-145.18;100.00;60484.78;5042182;28;20465;-67
2022/05/04 02:33:22;;;;;;;21.40;9.97;;;;;;;-145.18;100.00;60484.78;5039900;28;20132;-68
2022/05/04 02:38:31;;;;;;;28.63;10.40;;;;;;;-145.18;100.00;60484.78;5043717;28;20079;-68
2022/05/04 02:40:57;;;;;;;23.90;10.53;;;;;;;-145.18;100.00;60484.78;5038375;28;20052;-67
2022/05/04 02:43:22;;;;;;;28.50;11.27;;;;;;;-145.18;100.00;60484.78;5047889;28;20029;-67
2022/05/04 02:45:48;;;;;;;23.27;11.77;;;;;;;-145.18;100.00;60484.78;5038333;28;20965;-68
2022/05/04 02:48:13;;;;;;;28.73;11.27;;;;;;;-145.18;100.00;60484.78;5044357;28;20020;-68
2022/05/04 02:50:38;;;;;;;22.70;10.63;;;;;;;-145.18;100.00;60484.78;5039848;28;20100;-67
2022/05/04 02:53:04;;;;;;;28.57;11.13;;;;;;;-145.18;100.00;60484.78;5042403;28;20500;-68
2022/05/04 02:55:30;;;;;;;26.27;11.20;;;;;;;-145.18;100.00;60484.78;5037036;28;20474;-68
2022/05/04 02:57:56;;;;;;;30.53;11.50;;;;;;;-145.18;100.00;60484.78;5046992;28;20036;-67
2022/05/04 03:00:22;;;;;;;33.83;12.03;;;;;;;-145.18;100.00;60484.78;5047094;28;20029;-67
2022/05/04 03:02:47;;;;;;;30.77;11.37;;;;;;;-145.18;100.00;60484.78;5036813;28;20025;-67
2022/05/04 03:05:14;;;;;;;23.87;10.33;;;;;;;-145.18;100.00;60484.78;5038564;28;20048;-68
2022/05/04 03:07:40;;;;;;;18.83;9.40;;;;;;;-145.18;100.00;60484.78;5034331;28;20504;-67
2022/05/04 03:10:06;;;;;;;25.80;9.90;;;;;;;-145.18;100.00;60484.78;5047646;28;20033;-68
2022/05/04 03:12:32;;;;;;;24.00;10.47;;;;;;;-145.18;100.00;60484.78;5037838;28;20371;-68
2022/05/04 03:14:57;;;;;;;28.60;10.23;;;;;;;-145.18;100.00;60484.78;5044803;28;20021;-68
2022/05/04 03:17:22;;;;;;;31.10;10.57;;;;;;;-145.18;100.00;60484.78;5042664;28;20465;-68
2022/05/04 03:19:49;;;;;;;25.57;10.90;;;;;;;-145.18;100.00;60484.78;5049876;28;20796;-68
2022/05/04 03:22:15;;;;;;;24.10;11.47;;;;;;;-145.18;100.00;60484.78;5045894;28;20025;-68
2022/05/04 03:24:41;;;;;;;22.83;10.17;;;;;;;-145.18;100.00;60484.78;5049112;28;20040;-68
2022/05/04 03:27:07;;;;;;;25.03;10.70;;;;;;;-145.18;100.00;60484.78;5036593;28;20076;-68
2022/05/04 03:29:32;;;;;;;21.17;8.90;;;;;;;-145.18;100.00;60484.78;5050336;28;20039;-68
2022/05/04 03:31:58;;;;;;;21.80;9.30;;;;;;;-145.18;100.00;60484.78;5039953;28;20110;-67
2022/05/04 03:34:23;;;;;;;19.33;9.80;;;;;;;-145.18;100.00;60484.78;5036415;28;20493;-67
2022/05/04 03:36:49;;;;;;;24.30;9.80;;;;;;;-145.18;100.00;60484.78;5043767;28;20025;-68
2022/05/04 03:39:15;;;;;;;29.37;10.33;;;;;;;-145.18;100.00;60484.78;5043012;28;20028;-67
2022/05/04 03:41:40;;;;;;;18.13;9.20;;;;;;;-145.18;100.00;60484.78;5052999;28;20044;-69
2022/05/04 03:44:06;;;;;;;22.07;9.97;;;;;;;-145.18;100.00;60484.78;5041076;28;20037;-67
2022/05/04 03:46:43;;;;;;;19.57;9.00;;;;;;;-145.18;100.00;60484.78;5039294;28;20041;-67
2022/05/04 03:49:11;;;;;;;25.43;9.93;;;;;;;-145.18;100.00;60484.78;5038018;28;20041;-67
2022/05/04 03:51:36;;;;;;;22.93;9.67;;;;;;;-145.18;100.00;60484.78;5036946;28;20037;-67
2022/05/04 03:54:03;;;;;;;22.03;9.70;;;;;;;-145.18;100.00;60484.78;5036039;28;20037;-67
2022/05/04 03:56:28;;;;;;;24.40;10.17;;;;;;;-145.18;100.00;60484.78;5045148;28;20025;-67
2022/05/04 03:58:54;;;;;;;20.73;9.50;;;;;;;-145.18;100.00;60484.78;5034447;28;20079;-67
2022/05/04 04:01:20;;;;;;;22.30;9.37;;;;;;;-145.18;100.00;60484.78;5046809;28;20037;-67
2022/05/04 04:03:45;;;;;;;23.17;9.93;;;;;;;-145.18;100.00;60484.78;5036403;28;20140;-67
2022/05/04 04:06:11;;;;;;;20.30;9.97;;;;;;;-145.18;100.00;60484.78;5045768;28;20055;-67
2022/05/04 04:08:37;;;;;;;23.53;10.17;;;;;;;-145.18;100.00;60484.78;5036911;28;20091;-67
2022/05/04 04:11:03;;;;;;;28.80;10.33;;;;;;;-145.18;100.00;60484.78;5044559;28;20100;-67
2022/05/04 04:13:29;;;;;;;22.73;10.73;;;;;;;-145.18;100.00;60484.78;5038804;28;20033;-67
2022/05/04 04:15:54;;;;;;;24.50;11.23;;;;;;;-145.18;100.00;60484.78;5043493;28;20025;-67
2022/05/04 04:18:21;;;;;;;20.97;10.27;;;;;;;-145.18;100.00;60484.78;5043363;28;20032;-67
2022/05/04 04:23:32;;;;;;;27.27;10.53;;;;;;;-145.18;100.00;60484.78;5037791;28;20047;-67
2022/05/04 04:25:58;;;;;;;22.90;10.20;;;;;;;-145.18;100.00;60484.78;5039565;28;20367;-67
2022/05/04 04:28:23;;;;;;;26.17;9.73;;;;;;;-145.18;100.00;60484.78;5040987;28;20045;-66
2022/05/04 04:30:49;;;;;;;20.43;9.27;;;;;;;-145.18;100.00;60484.78;5034228;28;20083;-66
2022/05/04 04:33:14;;;;;;;19.00;8.83;;;;;;;-145.18;100.00;60484.78;5037021;28;20433;-66
2022/05/04 04:35:40;;;;;;;16.93;8.40;;;;;;;-145.18;100.00;60484.78;5039132;28;20025;-66
2022/05/04 04:38:07;;;;;;;21.33;8.60;;;;;;;-145.18;100.00;60484.78;5038704;28;20117;-66
2022/05/04 04:40:32;;;;;;;20.10;7.60;;;;;;;-145.18;100.00;60484.78;5041342;28;20052;-66
2022/05/04 04:42:58;;;;;;;17.90;7.77;;;;;;;-145.18;100.00;60484.78;5036025;28;20032;-66
2022/05/04 04:45:23;;;;;;;20.13;7.37;;;;;;;-145.18;100.00;60484.78;5039644;28;20037;-66
2022/05/04 04:47:49;;;;;;;17.53;7.03;;;;;;;-145.18;100.00;60484.78;5041839;28;20083;-67
2022/05/04 04:50:14;;;;;;;15.33;7.60;;;;;;;-145.18;100.00;60484.78;5038475;28;20028;-66
2022/05/04 04:52:40;;;;;;;15.50;6.40;;;;;;;-145.18;100.00;60484.78;5037048;28;20037;-66
2022/05/04 04:55:06;;;;;;;18.40;6.80;;;;;;;-145.18;100.00;60484.78;5037064;28;20027;-67
2022/05/04 04:57:33;;;;;;;16.87;6.40;;;;;;;-145.18;100.00;60484.78;5036706;28;20034;-66
2022/05/04 04:59:59;;;;;;;17.90;6.83;;;;;;;-145.18;100.00;60484.78;5033537;28;20033;-67
2022/05/04 05:02:24;;;;;;;18.40;7.53;;;;;;;-145.18;100.00;60484.78;5042344;28;20021;-66
2022/05/04 05:04:49;;;;;;;18.83;7.80;;;;;;;-145.18;100.00;60484.78;5040083;28;20465;-66
2022/05/04 05:07:15;;;;;;;20.63;7.50;;;;;;;-145.18;100.00;60484.78;5035948;28;20037;-66
2022/05/04 05:09:40;;;;;;;14.53;6.67;;;;;;;-145.18;100.00;60484.78;5035580;28;20040;-66
2022/05/04 05:12:06;;;;;;;15.43;7.07;;;;;;;-145.18;100.00;60484.78;5038679;28;20110;-66
2022/05/04 05:17:15;;;;;;;20.77;8.20;;;;;;;-145.18;100.00;60484.78;5037572;28;20067;-66
2022/05/04 05:19:41;;;;;;;16.60;7.60;;;;;;;-145.18;100.00;60484.78;5030494;28;20478;-66
2022/05/04 05:22:06;;;;;;;19.83;7.50;;;;;;;-145.18;100.00;60484.78;5035374;28;20116;-66
2022/05/04 05:24:32;;;;;;;16.13;7.17;;;;;;;-145.18;100.00;60484.78;5043556;28;20033;-66
2022/05/04 05:26:57;;;;;;;14.87;6.67;;;;;;;-145.18;100.00;60484.78;5043166;28;20035;-66
2022/05/04 05:29:22;;;;;;;20.43;8.40;;;;;;;-145.18;100.00;60484.78;5040919;28;20037;-66
2022/05/04 05:31:48;;;;;;;24.80;8.13;;;;;;;-145.18;100.00;60484.78;5037816;28;20097;-66
2022/05/04 05:34:13;;;;;;;19.13;6.37;;;;;;;-145.18;100.00;60484.78;5038757;28;20029;-66
2022/05/04 05:36:39;;;;;;;22.30;6.30;;;;;;;-145.18;100.00;60484.78;5038203;28;20033;-66
2022/05/04 05:39:04;;;;;;;16.77;5.50;;;;;;;-145.18;100.00;60484.78;5040938;28;20033;-66
2022/05/04 05:41:31;;;;;;;14.33;5.17;;;;;;;-145.18;100.00;60484.78;5036927;28;20056;-67
2022/05/04 05:43:56;;;;;;;17.90;5.60;;;;;;;-145.18;100.00;60484.78;5038867;28;20033;-66
2022/05/04 05:46:22;;;;;;;19.07;4.67;;;;;;;-145.18;100.00;60484.78;5034039;28;20037;-66
2022/05/04 05:48:47;;;;;;;17.07;4.77;;;;;;;-145.18;100.00;60484.78;5040514;28;20033;-66
2022/05/04 05:51:13;;;;;;;16.03;4.43;;;;;;;-145.18;100.00;60484.78;5035751;28;20029;-66
2022/05/04 05:53:38;;;;;;;13.77;3.77;;;;;;;-145.18;100.00;60484.78;5034437;28;20484;-66
2022/05/04 05:56:04;;;;;;;12.43;3.87;;;;;;;-145.18;100.00;60484.78;5036372;28;20487;-66
2022/05/04 05:58:29;;;;;;;17.53;4.00;;;;;;;-145.18;100.00;60484.78;5049422;28;20431;-66
2022/05/04 06:00:55;;;;;;;12.50;4.27;;;;;;;-145.18;100.00;60484.78;5032984;28;20147;-66
2022/05/04 06:03:22;;;;;;;12.63;3.70;;;;;;;-145.18;100.00;60484.78;5027181;28;20390;-66
2022/05/04 06:05:47;;;;;;;12.47;3.53;;;;;;;-145.18;100.00;60484.78;5032865;28;20580;-66
2022/05/04 06:08:12;;;;;;;15.33;3.60;;;;;;;-145.18;100.00;60484.78;5044886;28;20124;-66
2022/05/04 06:10:38;;;;;;;8.50;2.93;;;;;;;-145.18;100.00;60484.78;5044330;28;20479;-66
2022/05/04 06:13:04;;;;;;;15.27;4.03;;;;;;;-145.18;100.00;60484.78;5052514;28;20534;-66
2022/05/04 06:15:29;;;;;;;14.67;3.63;;;;;;;-145.18;100.00;60484.78;5052816;28;20099;-66
2022/05/04 06:17:55;;;;;;;15.53;3.63;;;;;;;-145.18;100.00;60484.78;5041614;28;20120;-66
2022/05/04 06:20:22;;;;;;;16.57;3.10;;;;;;;-145.18;100.00;60484.78;5051393;28;20127;-66
2022/05/04 06:22:47;;;;;;;13.70;3.03;;;;;;;-145.18;100.00;60484.78;5053089;28;20044;-66
2022/05/04 06:25:13;;;;;;;9.37;3.30;;;;;;;-145.18;100.00;60484.78;5044568;28;20370;-66
2022/05/04 06:27:38;;;;;;;15.07;3.10;;;;;;;-145.18;100.00;60484.78;5045977;28;20037;-67
2022/05/04 06:35:32;;;;;;;10.97;3.93;;;;;;;-145.18;100.00;60484.78;5044259;28;20128;-66
2022/05/04 06:37:57;;;;;;;14.10;2.90;;;;;;;-145.18;100.00;60484.78;5039403;28;20493;-66
2022/05/04 06:40:22;;;;;;;12.80;3.23;;;;;;;-145.18;100.00;60484.78;5042898;28;20083;-66
2022/05/04 06:42:48;;;;;;;13.53;3.97;;;;;;;-145.18;100.00;60484.78;5054714;28;20016;-66
2022/05/04 06:45:13;;;;;;;11.33;2.77;;;;;;;-145.18;100.00;60484.78;5048479;28;20043;-67
2022/05/04 06:47:39;;;;;;;11.23;3.50;;;;;;;-145.18;100.00;60484.78;5047461;28;20052;-66
2022/05/04 06:50:05;;;;;;;12.57;3.20;;;;;;;-145.18;100.00;60484.78;5040684;28;20040;-66
2022/05/04 06:52:31;;;;;;;8.97;3.13;;;;;;;-145.18;100.00;60484.78;5054154;28;20074;-66
2022/05/04 06:54:57;;;;;;;11.50;3.07;;;;;;;-145.18;100.00;60484.78;5052352;28;20043;-66
2022/05/04 06:57:22;;;;;;;10.90;3.63;;;;;;;-145.18;100.00;60484.78;5053907;28;20033;-66
2022/05/04 06:59:48;;;;;;;13.07;3.30;;;;;;;-145.18;100.00;60484.78;5040950;28;20037;-66
2022/05/04 07:02:14;;;;;;;13.87;3.30;;;;;;;-145.18;100.00;60484.78;5044720;28;20103;-66
2022/05/04 07:04:39;;;;;;;14.60;4.03;;;;;;;-145.18;100.00;60484.78;5048470;28;20540;-66
2022/05/04 07:07:05;;;;;;;15.73;4.57;;;;;;;-145.18;100.00;60484.78;5053872;28;20029;-66
2022/05/04 07:09:30;;;;;;;12.37;3.43;;;;;;;-145.18;100.00;60484.78;5051183;28;20033;-67
2022/05/04 07:11:56;;;;;;;10.47;3.60;;;;;;;-145.18;100.00;60484.78;5053986;28;20052;-66
2022/05/04 07:14:22;;;;;;;13.57;3.60;;;;;;;-145.18;100.00;60484.78;5053193;28;20504;-67
2022/05/04 07:16:47;;;;;;;11.97;3.40;;;;;;;-145.18;100.00;60484.78;5047381;28;20029;-66
2022/05/04 07:19:13;;;;;;;11.50;3.70;;;;;;;-145.18;100.00;60484.78;5033735;28;20037;-66
2022/05/04 07:21:39;;;;;;;10.73;3.20;;;;;;;-145.18;100.00;60484.78;5053017;28;20048;-66
2022/05/04 07:24:05;;;;;;;13.83;3.70;;;;;;;-145.18;100.00;60484.78;5052347;28;20025;-67
2022/05/04 07:26:31;;;;;;;11.60;3.37;;;;;;;-145.18;100.00;60484.78;5053522;28;20466;-66
2022/05/04 07:28:56;;;;;;;12.80;3.30;;;;;;;-145.18;100.00;60484.78;5052542;28;20063;-66
2022/05/04 07:31:22;;;;;;;8.73;2.90;;;;;;;-145.18;100.00;60484.78;5048535;28;20087;-67
2022/05/04 07:33:47;;;;;;;13.30;3.37;;;;;;;-145.18;100.00;60484.78;5033387;28;20033;-67
2022/05/04 07:36:12;;;;;;;12.97;3.23;;;;;;;-145.18;100.00;60484.78;5048715;28;20119;-66
2022/05/04 07:38:38;;;;;;;13.50;3.33;;;;;;;-145.18;100.00;60484.78;5053453;28;20385;-66
2022/05/04 07:43:47;;;;;;;8.93;2.67;;;;;;;-145.18;100.00;60484.78;5052482;28;20036;-66
2022/05/04 07:46:13;;;;;;;10.02;2.95;;;;;;;-145.18;100.00;60484.78;5047807;28;20033;-66
2022/05/04 07:48:38;;;;;;;13.48;2.58;;;;;;;-145.18;100.00;60484.78;5042791;28;20037;-66
2022/05/04 07:51:04;;;;;;;8.63;2.70;;;;;;;-145.18;100.00;60484.78;5053200;28;20036;-66
2022/05/04 07:53:29;;;;;;;10.70;2.72;;;;;;;-145.18;100.00;60484.78;5053228;28;20032;-66
2022/05/04 07:55:54;;;;;;;8.23;2.47;;;;;;;-145.18;100.00;60484.78;5052649;28;20469;-66
2022/05/04 07:58:20;;;;;;;8.98;2.72;;;;;;;-145.18;100.00;60484.78;5050977;28;20382;-66
2022/05/04 08:06:13;;;;;;;12.35;2.80;;;;;;;-145.18;100.00;60484.78;5048411;28;20036;-66
2022/05/04 08:08:39;;;;;;;10.95;2.40;;;;;;;-145.18;100.00;60484.78;5052825;28;20036;-66
2022/05/04 08:11:04;;;;;;;10.75;2.53;;;;;;;-145.18;100.00;60484.78;5052297;28;20029;-66
2022/05/04 08:13:30;;;;;;;8.98;2.55;;;;;;;-145.18;100.00;60484.78;5051764;28;20037;-66
2022/05/04 08:15:55;;;;;;;8.13;2.58;;;;;;;-145.18;100.00;60484.78;5049073;28;20021;-66
2022/05/04 08:18:20;;;;;;;8.60;2.50;;;;;;;-145.18;100.00;60484.78;5051864;28;20028;-66
2022/05/04 08:20:46;;;;;;;9.98;3.05;;;;;;;-145.18;100.00;60484.78;5052308;28;20036;-66
2022/05/04 08:23:12;;;;;;;12.95;3.22;;;;;;;-145.18;100.00;60484.78;5039844;28;20096;-66
2022/05/04 08:25:38;;;;;;;10.68;2.60;;;;;;;-145.18;100.00;60484.78;5042891;28;20495;-66
2022/05/04 08:28:04;;;;;;;9.93;2.83;;;;;;;-145.18;100.00;60484.78;5041545;28;20025;-66
2022/05/04 08:30:29;;;;;;;10.32;2.65;;;;;;;-145.18;100.00;60484.78;5041932;28;20112;-66
2022/05/04 08:32:55;;;;;;;8.35;2.33;;;;;;;-145.18;100.00;60484.78;5034231;28;20375;-66
2022/05/04 08:35:20;;;;;;;10.80;2.70;;;;;;;-145.18;100.00;60484.78;5040321;28;20461;-66
2022/05/04 08:37:46;;;;;;;10.10;2.78;;;;;;;-145.18;100.00;60484.78;5052253;28;20031;-66
2022/05/04 08:40:12;;;;;;;8.65;2.72;;;;;;;-145.18;100.00;60484.78;5051830;28;20033;-66
2022/05/04 08:42:42;;;;;;;14.23;2.95;;;;;;;-145.18;100.00;60484.78;5042100;28;20081;-66
2022/05/04 08:45:11;;;;;;;9.00;2.80;;;;;;;-145.18;100.00;60484.78;5049699;28;20029;-66
2022/05/04 08:47:39;;;;;;;7.75;2.40;;;;;;;-145.18;100.00;60484.78;5046244;28;20102;-66
2022/05/04 08:50:09;;;;;;;8.68;2.70;;;;;;;-145.18;100.00;60484.78;5051750;28;20431;-66
2022/05/04 08:52:37;;;;;;;9.63;2.80;;;;;;;-145.18;100.00;60484.78;5052125;28;20032;-66
2022/05/04 08:55:05;;;;;;;9.32;3.00;;;;;;;-145.18;100.00;60484.78;5051727;28;20111;-66
2022/05/04 08:57:31;;;;;;;9.93;3.08;;;;;;;-145.18;100.00;60484.78;5051187;28;20047;-66
2022/05/04 08:59:57;;;;;;;9.43;2.53;;;;;;;-145.18;100.00;60484.78;5051617;28;20028;-66
2022/05/04 09:02:22;;;;;;;9.45;2.63;;;;;;;-145.18;100.00;60484.78;5034639;28;20497;-66
2022/05/04 09:04:48;;;;;;;10.50;2.65;;;;;;;-145.18;100.00;60484.78;5035594;28;20060;-66
2022/05/04 09:07:26;;;;;;;9.60;2.60;;;;;;;-145.18;100.00;60484.78;5051619;28;20563;-66
2022/05/04 09:09:53;;;;;;;9.48;2.80;;;;;;;-145.18;100.00;60484.78;5051172;28;20036;-66
2022/05/04 09:12:18;;;;;;;9.05;2.58;;;;;;;-145.18;100.00;60484.78;5047178;28;20036;-66
2022/05/04 09:14:46;;;;;;;9.50;2.50;;;;;;;-145.18;100.00;60484.78;5051459;28;20406;-66
2022/05/04 09:17:15;;;;;;;8.98;2.80;;;;;;;-145.18;100.00;60484.78;5034006;28;20033;-66
2022/05/04 09:22:41;;;;;;;7.57;2.70;;;;;;;-145.18;100.00;60484.78;5051614;28;20035;-66
2022/05/04 09:25:18;;;;;;;10.50;2.70;;;;;;;-145.18;100.00;60484.78;5051339;28;20044;-66
2022/05/04 09:27:44;;;;;;;9.20;2.60;;;;;;;-145.18;100.00;60484.78;5050813;28;20052;-66
2022/05/04 09:30:10;;;;;;;10.10;3.13;;;;;;;-145.18;100.00;60484.78;5047132;28;20032;-66
2022/05/04 09:32:39;;;;;;;12.93;2.72;;;;;;;-145.18;100.00;60484.78;5031511;28;20029;-66
2022/05/04 09:35:14;;;;;;;11.65;2.53;;;;;;;-145.18;100.00;60484.78;5032706;28;20029;-66
2022/05/04 09:46:07;;;;;;;8.52;3.00;;;;;;;-145.18;100.00;60484.78;5042360;28;20071;-66
2022/05/04 09:48:34;;;;;;;13.75;2.95;;;;;;;-145.18;100.00;60484.78;5030353;28;20025;-66
2022/05/04 09:51:08;;;;;;;9.82;2.80;;;;;;;-145.18;100.00;60484.78;5044713;28;20044;-66
2022/05/04 09:53:36;;;;;;;11.13;3.67;;;;;;;-145.18;100.00;60484.78;5047588;28;20048;-67
2022/05/04 09:56:02;;;;;;;9.30;3.22;;;;;;;-145.18;100.00;60484.78;5044558;28;20056;-67
2022/05/04 09:58:30;;;;;;;12.30;3.25;;;;;;;-145.18;100.00;60484.78;5050243;28;20109;-67
2022/05/04 10:00:57;;;;;;;11.23;3.25;;;;;;;-145.18;100.00;60484.78;5041021;28;20029;-67
2022/05/04 10:03:23;;;;;;;8.73;3.42;;;;;;;-145.18;100.00;60484.78;5031035;28;20108;-67
2022/05/04 10:05:50;;;;;;;9.60;3.58;;;;;;;-145.18;100.00;60484.78;5042889;28;20055;-67
2022/05/04 10:08:16;;;;;;;9.30;3.45;;;;;;;-145.18;100.00;60484.78;5045829;28;20036;-67
2022/05/04 10:10:43;;;;;;;10.98;3.70;;;;;;;-145.18;100.00;60484.78;5039777;28;20028;-67
2022/05/04 10:13:08;;;;;;;17.63;3.33;;;;;;;-145.18;100.00;60484.78;5050722;28;20036;-68
2022/05/04 10:15:36;;;;;;;8.73;3.72;;;;;;;-145.18;100.00;60484.78;5049150;28;20021;-67
2022/05/04 10:18:13;;;;;;;8.80;3.80;;;;;;;-145.18;100.00;60484.78;5040201;28;20026;-67
2022/05/04 10:20:44;;;;;;;11.30;3.67;;;;;;;-145.18;100.00;60484.78;5037977;28;20033;-67
2022/05/04 10:23:19;;;;;;;13.77;3.90;;;;;;;-145.18;100.00;60484.78;5031248;28;20030;-67
2022/05/04 10:25:44;;;;;;;9.13;3.50;;;;;;;-145.18;100.00;60484.78;5038004;28;20041;-68
2022/05/04 10:28:16;;;;;;;12.50;3.88;;;;;;;-145.18;100.00;60484.78;5050945;28;20035;-68
2022/05/04 10:30:57;;;;;;;11.23;4.18;;;;;;;-145.18;100.00;60484.78;5047563;28;20029;-68
2022/05/04 10:33:25;;;;;;;11.75;4.38;;;;;;;-145.18;100.00;60484.78;5039788;28;20026;-68
2022/05/04 10:35:51;;;;;;;13.38;4.82;;;;;;;-145.18;100.00;60484.78;5043062;28;20096;-68
2022/05/04 10:38:29;;;;;;;12.77;4.97;;;;;;;-145.18;100.00;60484.78;5050860;28;20091;-68
2022/05/04 10:40:56;;;;;;;8.43;4.25;;;;;;;-145.18;100.00;60484.78;5045809;28;20064;-68
2022/05/04 10:43:38;;;;;;;14.02;4.78;;;;;;;-145.18;100.00;60484.78;5030737;28;20108;-68
2022/05/04 10:46:18;;;;;;;9.73;4.40;;;;;;;-145.18;100.00;60484.78;5033462;28;20029;-68
2022/05/04 10:49:04;;;;;;;13.95;4.78;;;;;;;-145.18;100.00;60484.78;5050700;28;20500;-68
2022/05/04 10:51:37;;;;;;;10.95;4.63;;;;;;;-145.18;100.00;60484.78;5048073;28;20025;-68
2022/05/04 10:54:16;;;;;;;11.30;3.97;;;;;;;-145.18;100.00;60484.78;5036431;28;20026;-68
2022/05/04 10:56:44;;;;;;;12.55;4.43;;;;;;;-145.18;100.00;60484.78;5044108;28;20493;-67
2022/05/04 10:59:10;;;;;;;14.73;4.03;;;;;;;-145.18;100.00;60484.78;5041039;28;20419;-66
2022/05/04 11:01:37;;;;;;;12.27;4.43;;;;;;;-145.18;100.00;60484.78;5044628;28;20021;-66
2022/05/04 11:04:04;;;;;;;11.18;4.45;;;;;;;-145.18;100.00;60484.78;5049297;28;20025;-66
2022/05/04 11:06:53;;;;;;;12.07;4.38;;;;;;;-145.18;100.00;60484.78;5048069;28;20029;-66
2022/05/04 11:09:20;;;;;;;12.60;4.88;;;;;;;-145.18;100.00;60484.78;5045335;28;20036;-66
2022/05/04 11:11:52;;;;;;;12.68;4.60;;;;;;;-145.18;100.00;60484.78;5040676;28;20068;-66
2022/05/04 11:14:22;;;;;;;10.30;4.55;;;;;;;-145.18;100.00;60484.78;5038852;28;20038;-66
2022/05/04 11:16:49;;;;;;;12.20;4.38;;;;;;;-145.18;100.00;60484.78;5040509;28;20115;-67
2022/05/04 11:19:15;;;;;;;13.18;4.68;;;;;;;-145.18;100.00;60484.78;5040051;28;20125;-68
2022/05/04 11:21:40;;;;;;;11.27;5.13;;;;;;;-145.18;100.00;60484.78;5041639;28;20100;-68
2022/05/04 11:24:10;;;;;;;12.10;5.30;;;;;;;-145.18;100.00;60484.78;5037648;28;20496;-68
2022/05/04 11:26:41;;;;;;;11.95;5.50;;;;;;;-145.18;100.00;60484.78;5043471;28;20048;-68
2022/05/04 11:29:14;;;;;;;12.38;5.68;;;;;;;-145.18;100.00;60484.78;5035850;28;20478;-68
2022/05/04 11:31:52;;;;;;;11.30;6.00;;;;;;;-145.18;100.00;60484.78;5036472;28;20049;-68
2022/05/04 11:34:18;;;;;;;12.32;6.35;;;;;;;-145.18;100.00;60484.78;5040594;28;20029;-68
2022/05/04 11:36:46;;;;;;;11.85;5.75;;;;;;;-145.18;100.00;60484.78;5052197;28;20496;-68